createdAt,value
2016-07-27T00:00:58.449Z,1015.13
2016-07-27T00:01:58.450Z,1015.18
2016-07-27T00:02:58.450Z,1015.15
2016-07-27T00:03:58.446Z,1015.16
2016-07-27T00:04:58.447Z,1015.18
2016-07-27T00:05:58.444Z,1015.16
2016-07-27T00:06:58.443Z,1015.14
2016-07-27T00:07:58.445Z,1015.16
2016-07-27T00:08:58.449Z,1015.11
2016-07-27T00:09:58.443Z,1015.09
2016-07-27T00:10:58.451Z,1015.04
2016-07-27T00:11:58.441Z,1015.1
2016-07-27T00:12:58.440Z,1015.1
2016-07-27T00:13:58.436Z,1015.12
2016-07-27T00:14:58.437Z,1015.14
2016-07-27T00:15:58.435Z,1015.14
2016-07-27T00:16:58.434Z,1015.14
2016-07-27T00:17:58.433Z,1015.13
2016-07-27T00:18:58.434Z,1015.15
2016-07-27T00:20:58.732Z,1015.17
2016-07-27T00:21:58.431Z,1015.15
2016-07-27T00:22:58.427Z,1015.14
2016-07-27T00:23:58.428Z,1015.15
2016-07-27T00:24:58.778Z,1015.16
2016-07-27T00:25:58.426Z,1015.13
2016-07-27T00:26:58.424Z,1015.12
2016-07-27T00:27:58.422Z,1015.14
2016-07-27T00:29:58.423Z,1015.17
2016-07-27T00:30:58.419Z,1015.19
2016-07-27T00:31:58.418Z,1015.21
2016-07-27T00:32:58.419Z,1015.19
2016-07-27T00:33:58.416Z,1015.18
2016-07-27T00:34:58.417Z,1015.2
2016-07-27T00:35:58.414Z,1015.18
2016-07-27T00:36:58.415Z,1015.17
2016-07-27T00:37:58.413Z,1015.17
2016-07-27T00:38:58.410Z,1015.15
2016-07-27T00:39:58.412Z,1015.15
2016-07-27T00:40:58.412Z,1015.15
2016-07-27T00:41:58.408Z,1015.11
2016-07-27T00:42:58.406Z,1015.14
2016-07-27T00:43:58.411Z,1015.15
2016-07-27T00:44:58.402Z,1015.11
2016-07-27T00:45:58.405Z,1015.11
2016-07-27T00:46:58.403Z,1015.12
2016-07-27T00:47:58.400Z,1015.1
2016-07-27T00:48:58.401Z,1015.15
2016-07-27T00:49:58.497Z,1015.14
2016-07-27T00:50:58.398Z,1015.12
2016-07-27T00:51:58.397Z,1015.12
2016-07-27T00:52:58.392Z,1015.14
2016-07-27T00:53:58.392Z,1015.13
2016-07-27T00:54:58.390Z,1015.12
2016-07-27T00:55:58.391Z,1015.09
2016-07-27T00:56:59.901Z,1015.11
2016-07-27T00:57:58.389Z,1015.08
2016-07-27T00:58:58.485Z,1015.05
2016-07-27T00:59:58.386Z,1015.07
2016-07-27T01:00:59.157Z,1015.07
2016-07-27T01:01:58.386Z,1015.04
2016-07-27T01:02:58.381Z,1015.01
2016-07-27T01:03:58.380Z,1015.03
2016-07-27T01:04:58.381Z,1015.04
2016-07-27T01:05:58.379Z,1015.04
2016-07-27T01:06:58.871Z,1015.05
2016-07-27T01:07:58.374Z,1015.04
2016-07-27T01:08:58.374Z,1015.05
2016-07-27T01:09:58.770Z,1015.03
2016-07-27T01:10:58.372Z,1014.99
2016-07-27T01:11:58.371Z,1014.96
2016-07-27T01:12:58.371Z,1014.94
2016-07-27T01:13:58.366Z,1014.92
2016-07-27T01:14:58.364Z,1014.89
2016-07-27T01:15:58.363Z,1014.9
2016-07-27T01:16:58.363Z,1014.94
2016-07-27T01:17:58.363Z,1014.85
2016-07-27T01:18:58.360Z,1014.9
2016-07-27T01:19:58.359Z,1014.89
2016-07-27T01:20:58.361Z,1014.87
2016-07-27T01:21:58.358Z,1014.84
2016-07-27T01:22:58.357Z,1014.82
2016-07-27T01:23:58.355Z,1014.82
2016-07-27T01:24:58.353Z,1014.81
2016-07-27T01:25:58.352Z,1014.81
2016-07-27T01:26:58.349Z,1014.77
2016-07-27T01:27:58.347Z,1014.82
2016-07-27T01:28:58.348Z,1014.8
2016-07-27T01:29:58.346Z,1014.8
2016-07-27T01:30:58.345Z,1014.79
2016-07-27T01:31:58.346Z,1014.78
2016-07-27T01:32:58.342Z,1014.78
2016-07-27T01:33:58.343Z,1014.75
2016-07-27T01:34:58.339Z,1014.73
2016-07-27T01:35:58.338Z,1014.73
2016-07-27T01:36:58.338Z,1014.7
2016-07-27T01:37:58.338Z,1014.68
2016-07-27T01:38:58.336Z,1014.68
2016-07-27T01:39:58.335Z,1014.66
2016-07-27T01:40:58.330Z,1014.71
2016-07-27T01:41:58.332Z,1014.71
2016-07-27T01:42:58.331Z,1014.75
2016-07-27T01:43:58.325Z,1014.74
2016-07-27T01:44:58.328Z,1014.73
2016-07-27T01:45:58.326Z,1014.76
2016-07-27T01:46:58.324Z,1014.74
2016-07-27T01:47:58.323Z,1014.72
2016-07-27T01:48:58.322Z,1014.73
2016-07-27T01:49:58.321Z,1014.72
2016-07-27T01:50:58.316Z,1014.74
2016-07-27T01:51:58.317Z,1014.72
2016-07-27T01:52:58.316Z,1014.72
2016-07-27T01:53:58.312Z,1014.69
2016-07-27T01:54:58.313Z,1014.7
2016-07-27T01:55:58.311Z,1014.73
2016-07-27T01:56:58.309Z,1014.73
2016-07-27T01:57:58.305Z,1014.74
2016-07-27T01:58:58.305Z,1014.74
2016-07-27T01:59:58.306Z,1014.75
2016-07-27T02:00:58.304Z,1014.75
2016-07-27T02:01:58.303Z,1014.71
2016-07-27T02:02:58.299Z,1014.68
2016-07-27T02:03:58.299Z,1014.68
2016-07-27T02:04:58.298Z,1014.66
2016-07-27T02:05:58.300Z,1014.66
2016-07-27T02:06:58.295Z,1014.66
2016-07-27T02:07:58.294Z,1014.65
2016-07-27T02:08:58.297Z,1014.69
2016-07-27T02:09:58.289Z,1014.66
2016-07-27T02:10:58.289Z,1014.65
2016-07-27T02:11:58.287Z,1014.64
2016-07-27T02:12:58.287Z,1014.68
2016-07-27T02:13:58.285Z,1014.64
2016-07-27T02:14:58.284Z,1014.64
2016-07-27T02:15:59.244Z,1014.62
2016-07-27T02:16:58.281Z,1014.6
2016-07-27T02:17:58.278Z,1014.59
2016-07-27T02:18:58.278Z,1014.63
2016-07-27T02:19:58.887Z,1014.6
2016-07-27T02:20:58.273Z,1014.59
2016-07-27T02:21:58.274Z,1014.59
2016-07-27T02:22:58.273Z,1014.58
2016-07-27T02:24:58.271Z,1014.6
2016-07-27T02:25:58.268Z,1014.56
2016-07-27T02:26:58.266Z,1014.57
2016-07-27T02:27:59.301Z,1014.56
2016-07-27T02:28:58.536Z,1014.59
2016-07-27T02:29:58.259Z,1014.56
2016-07-27T02:30:58.258Z,1014.61
2016-07-27T02:31:58.256Z,1014.59
2016-07-27T02:32:58.257Z,1014.56
2016-07-27T02:33:58.256Z,1014.61
2016-07-27T02:34:58.254Z,1014.62
2016-07-27T02:35:58.252Z,1014.65
2016-07-27T02:36:58.249Z,1014.68
2016-07-27T02:37:58.250Z,1014.65
2016-07-27T02:38:58.248Z,1014.66
2016-07-27T02:39:58.244Z,1014.66
2016-07-27T02:40:58.246Z,1014.63
2016-07-27T02:41:58.243Z,1014.63
2016-07-27T02:42:58.241Z,1014.58
2016-07-27T02:43:58.240Z,1014.59
2016-07-27T02:44:58.239Z,1014.52
2016-07-27T02:45:58.237Z,1014.54
2016-07-27T02:46:58.235Z,1014.53
2016-07-27T02:47:58.234Z,1014.55
2016-07-27T02:48:58.232Z,1014.47
2016-07-27T02:49:58.280Z,1014.45
2016-07-27T02:50:58.228Z,1014.45
2016-07-27T02:51:58.225Z,1014.41
2016-07-27T02:52:58.225Z,1014.43
2016-07-27T02:53:58.224Z,1014.39
2016-07-27T02:54:58.223Z,1014.37
2016-07-27T02:55:58.220Z,1014.36
2016-07-27T02:56:58.217Z,1014.38
2016-07-27T02:57:58.216Z,1014.37
2016-07-27T02:58:58.214Z,1014.33
2016-07-27T02:59:58.215Z,1014.34
2016-07-27T03:00:58.213Z,1014.34
2016-07-27T03:01:58.211Z,1014.36
2016-07-27T03:02:58.611Z,1014.34
2016-07-27T03:03:58.207Z,1014.31
2016-07-27T03:04:58.204Z,1014.31
2016-07-27T03:05:58.556Z,1014.3
2016-07-27T03:06:59.703Z,1014.35
2016-07-27T03:07:58.202Z,1014.32
2016-07-27T03:08:58.200Z,1014.36
2016-07-27T03:09:58.199Z,1014.38
2016-07-27T03:10:58.196Z,1014.36
2016-07-27T03:11:58.196Z,1014.36
2016-07-27T03:12:58.195Z,1014.32
2016-07-27T03:13:58.190Z,1014.35
2016-07-27T03:14:58.191Z,1014.27
2016-07-27T03:15:58.186Z,1014.3
2016-07-27T03:16:58.188Z,1014.28
2016-07-27T03:17:58.187Z,1014.26
2016-07-27T03:18:58.184Z,1014.27
2016-07-27T03:19:58.183Z,1014.29
2016-07-27T03:20:58.181Z,1014.27
2016-07-27T03:21:58.179Z,1014.27
2016-07-27T03:22:58.176Z,1014.27
2016-07-27T03:23:58.177Z,1014.33
2016-07-27T03:24:58.173Z,1014.32
2016-07-27T03:25:58.173Z,1014.37
2016-07-27T03:26:58.172Z,1014.35
2016-07-27T03:27:58.174Z,1014.32
2016-07-27T03:28:58.167Z,1014.35
2016-07-27T03:29:58.164Z,1014.33
2016-07-27T03:30:58.164Z,1014.35
2016-07-27T03:31:58.163Z,1014.31
2016-07-27T03:32:58.162Z,1014.29
2016-07-27T03:33:58.161Z,1014.3
2016-07-27T03:34:58.160Z,1014.31
2016-07-27T03:35:58.155Z,1014.32
2016-07-27T03:37:58.152Z,1014.36
2016-07-27T03:38:58.152Z,1014.34
2016-07-27T03:39:58.149Z,1014.37
2016-07-27T03:40:58.148Z,1014.38
2016-07-27T03:41:58.146Z,1014.38
2016-07-27T03:43:58.145Z,1014.43
2016-07-27T03:44:58.141Z,1014.36
2016-07-27T03:45:58.142Z,1014.4
2016-07-27T03:46:58.140Z,1014.41
2016-07-27T03:47:58.138Z,1014.37
2016-07-27T03:48:58.136Z,1014.37
2016-07-27T03:49:58.134Z,1014.38
2016-07-27T03:50:58.136Z,1014.35
2016-07-27T03:52:58.132Z,1014.33
2016-07-27T03:53:58.131Z,1014.35
2016-07-27T03:54:58.128Z,1014.4
2016-07-27T03:55:58.127Z,1014.39
2016-07-27T03:56:58.124Z,1014.42
2016-07-27T03:57:58.124Z,1014.42
2016-07-27T03:58:58.124Z,1014.41
2016-07-27T03:59:58.123Z,1014.41
2016-07-27T04:00:58.120Z,1014.43
2016-07-27T04:01:58.121Z,1014.38
2016-07-27T04:02:58.118Z,1014.36
2016-07-27T04:03:58.115Z,1014.41
2016-07-27T04:04:58.115Z,1014.36
2016-07-27T04:05:58.113Z,1014.33
2016-07-27T04:07:58.113Z,1014.39
2016-07-27T04:08:58.113Z,1014.37
2016-07-27T04:09:58.112Z,1014.4
2016-07-27T04:10:58.109Z,1014.39
2016-07-27T04:11:58.109Z,1014.36
2016-07-27T04:12:58.109Z,1014.3
2016-07-27T04:13:58.110Z,1014.31
2016-07-27T04:14:58.110Z,1014.28
2016-07-27T04:16:58.109Z,1014.26
2016-07-27T04:17:58.108Z,1014.32
2016-07-27T04:18:58.759Z,1014.29
2016-07-27T04:19:58.107Z,1014.28
2016-07-27T04:20:58.106Z,1014.28
2016-07-27T04:22:58.115Z,1014.37
2016-07-27T04:23:58.108Z,1014.36
2016-07-27T04:24:58.457Z,1014.38
2016-07-27T04:25:58.110Z,1014.4
2016-07-27T04:26:58.112Z,1014.42
2016-07-27T04:27:58.112Z,1014.42
2016-07-27T04:28:58.111Z,1014.41
2016-07-27T04:29:58.213Z,1014.44
2016-07-27T04:30:58.116Z,1014.41
2016-07-27T04:31:58.116Z,1014.41
2016-07-27T04:32:58.118Z,1014.41
2016-07-27T04:33:58.118Z,1014.4
2016-07-27T04:34:58.122Z,1014.39
2016-07-27T04:35:58.122Z,1014.42
2016-07-27T04:36:58.122Z,1014.36
2016-07-27T04:37:58.127Z,1014.4
2016-07-27T04:38:58.127Z,1014.4
2016-07-27T04:39:58.130Z,1014.38
2016-07-27T04:40:58.132Z,1014.38
2016-07-27T04:41:58.133Z,1014.37
2016-07-27T04:42:58.134Z,1014.39
2016-07-27T04:43:58.134Z,1014.37
2016-07-27T04:44:58.141Z,1014.36
2016-07-27T04:45:58.140Z,1014.35
2016-07-27T04:46:58.146Z,1014.36
2016-07-27T04:47:58.146Z,1014.31
2016-07-27T04:48:58.151Z,1014.34
2016-07-27T04:49:58.253Z,1014.34
2016-07-27T04:50:58.153Z,1014.3
2016-07-27T04:51:58.157Z,1014.32
2016-07-27T04:52:58.160Z,1014.31
2016-07-27T04:53:58.159Z,1014.36
2016-07-27T04:54:58.164Z,1014.31
2016-07-27T04:55:58.164Z,1014.34
2016-07-27T04:56:58.168Z,1014.33
2016-07-27T04:57:58.524Z,1014.32
2016-07-27T04:58:58.172Z,1014.33
2016-07-27T04:59:58.174Z,1014.32
2016-07-27T05:00:58.180Z,1014.31
2016-07-27T05:01:59.113Z,1014.31
2016-07-27T05:02:58.183Z,1014.29
2016-07-27T05:03:58.188Z,1014.25
2016-07-27T05:04:58.188Z,1014.3
2016-07-27T05:05:58.194Z,1014.29
2016-07-27T05:06:58.196Z,1014.29
2016-07-27T05:07:58.199Z,1014.33
2016-07-27T05:08:58.204Z,1014.32
2016-07-27T05:09:58.206Z,1014.27
2016-07-27T05:10:58.209Z,1014.3
2016-07-27T05:11:58.211Z,1014.31
2016-07-27T05:12:58.218Z,1014.28
2016-07-27T05:13:58.227Z,1014.32
2016-07-27T05:14:58.226Z,1014.35
2016-07-27T05:15:58.230Z,1014.31
2016-07-27T05:16:58.232Z,1014.29
2016-07-27T05:17:58.237Z,1014.3
2016-07-27T05:18:58.241Z,1014.28
2016-07-27T05:19:58.247Z,1014.24
2016-07-27T05:20:58.251Z,1014.31
2016-07-27T05:21:58.256Z,1014.32
2016-07-27T05:22:58.261Z,1014.32
2016-07-27T05:23:58.264Z,1014.33
2016-07-27T05:24:58.271Z,1014.26
2016-07-27T05:25:58.274Z,1014.28
2016-07-27T05:26:58.279Z,1014.27
2016-07-27T05:27:58.286Z,1014.34
2016-07-27T05:28:58.291Z,1014.41
2016-07-27T05:29:58.294Z,1014.41
2016-07-27T05:30:58.302Z,1014.43
2016-07-27T05:31:58.307Z,1014.44
2016-07-27T05:32:58.310Z,1014.47
2016-07-27T05:33:58.516Z,1014.42
2016-07-27T05:34:58.321Z,1014.46
2016-07-27T05:35:58.528Z,1014.42
2016-07-27T05:36:58.336Z,1014.42
2016-07-27T05:37:58.341Z,1014.43
2016-07-27T05:38:58.349Z,1014.44
2016-07-27T05:39:58.656Z,1014.46
2016-07-27T05:40:58.363Z,1014.45
2016-07-27T05:41:58.371Z,1014.45
2016-07-27T05:42:58.376Z,1014.46
2016-07-27T05:43:58.386Z,1014.47
2016-07-27T05:44:58.692Z,1014.49
2016-07-27T05:45:58.400Z,1014.47
2016-07-27T05:46:58.410Z,1014.56
2016-07-27T05:47:58.418Z,1014.48
2016-07-27T05:48:58.426Z,1014.49
2016-07-27T05:49:58.435Z,1014.54
2016-07-27T05:50:58.446Z,1014.56
2016-07-27T05:51:58.454Z,1014.58
2016-07-27T05:52:58.463Z,1014.53
2016-07-27T05:53:58.474Z,1014.55
2016-07-27T05:54:58.483Z,1014.52
2016-07-27T05:55:58.493Z,1014.51
2016-07-27T05:56:58.502Z,1014.52
2016-07-27T05:57:58.512Z,1014.46
2016-07-27T05:58:58.520Z,1014.38
2016-07-27T05:59:58.529Z,1014.33
2016-07-27T06:00:58.541Z,1014.35
2016-07-27T06:01:58.552Z,1014.34
2016-07-27T06:02:58.560Z,1014.25
2016-07-27T06:03:58.571Z,1014.28
2016-07-27T06:04:58.581Z,1014.3
2016-07-27T06:05:58.591Z,1014.35
2016-07-27T06:06:58.599Z,1014.33
2016-07-27T06:07:58.611Z,1014.32
2016-07-27T06:08:58.620Z,1014.3
2016-07-27T06:09:58.632Z,1014.28
2016-07-27T06:10:59.891Z,1014.34
2016-07-27T06:11:58.653Z,1014.3
2016-07-27T06:12:58.663Z,1014.34
2016-07-27T06:13:58.989Z,1014.32
2016-07-27T06:14:58.684Z,1014.3
2016-07-27T06:15:58.694Z,1014.29
2016-07-27T06:16:58.707Z,1014.28
2016-07-27T06:17:58.717Z,1014.28
2016-07-27T06:18:58.727Z,1014.27
2016-07-27T06:19:58.740Z,1014.28
2016-07-27T06:20:58.752Z,1014.32
2016-07-27T06:21:58.760Z,1014.2
2016-07-27T06:22:59.135Z,1014.19
2016-07-27T06:23:58.783Z,1014.2
2016-07-27T06:24:58.795Z,1014.16
2016-07-27T06:25:58.808Z,1014.27
2016-07-27T06:26:58.942Z,1014.33
2016-07-27T06:27:58.833Z,1014.28
2016-07-27T06:28:58.841Z,1014.34
2016-07-27T06:29:58.855Z,1014.29
2016-07-27T06:30:58.867Z,1014.33
2016-07-27T06:31:58.874Z,1014.28
2016-07-27T06:32:58.888Z,1014.36
2016-07-27T06:33:58.902Z,1014.36
2016-07-27T06:34:58.913Z,1014.35
2016-07-27T06:35:58.924Z,1014.37
2016-07-27T06:36:58.935Z,1014.2
2016-07-27T06:37:58.948Z,1014.36
2016-07-27T06:38:58.962Z,1014.35
2016-07-27T06:39:58.971Z,1014.44
2016-07-27T06:40:58.986Z,1014.33
2016-07-27T06:41:58.996Z,1014.29
2016-07-27T06:42:59.015Z,1014.18
2016-07-27T06:43:59.023Z,1014.28
2016-07-27T06:44:59.034Z,1014.32
2016-07-27T06:45:59.046Z,1014.37
2016-07-27T06:46:59.059Z,1014.38
2016-07-27T06:47:59.080Z,1014.42
2016-07-27T06:48:59.082Z,1014.32
2016-07-27T06:49:59.147Z,1014.32
2016-07-27T06:50:59.108Z,1014.32
2016-07-27T06:51:59.118Z,1014.39
2016-07-27T06:52:59.130Z,1014.34
2016-07-27T06:53:59.643Z,1014.33
2016-07-27T06:54:59.155Z,1014.29
2016-07-27T06:55:59.163Z,1014.3
2016-07-27T06:56:59.176Z,1014.29
2016-07-27T06:57:59.186Z,1014.28
2016-07-27T06:58:59.201Z,1014.26
2016-07-27T06:59:59.209Z,1014.35
2016-07-27T07:00:59.218Z,1014.35
2016-07-27T07:01:59.232Z,1014.33
2016-07-27T07:02:59.443Z,1014.33
2016-07-27T07:03:59.253Z,1014.33
2016-07-27T07:04:59.261Z,1014.19
2016-07-27T07:05:59.271Z,1014.12
2016-07-27T07:06:59.281Z,1014.25
2016-07-27T07:07:59.291Z,1014.27
2016-07-27T07:08:59.300Z,1014.22
2016-07-27T07:09:59.312Z,1014.23
2016-07-27T07:10:59.319Z,1014.29
2016-07-27T07:11:59.336Z,1014.36
2016-07-27T07:12:59.341Z,1014.36
2016-07-27T07:13:59.350Z,1014.36
2016-07-27T07:14:59.361Z,1014.37
2016-07-27T07:15:59.367Z,1014.33
2016-07-27T07:16:59.377Z,1014.33
2016-07-27T07:17:59.388Z,1014.37
2016-07-27T07:18:59.399Z,1014.4
2016-07-27T07:19:59.409Z,1014.43
2016-07-27T07:20:59.419Z,1014.38
2016-07-27T07:21:59.429Z,1014.21
2016-07-27T07:22:59.437Z,1014.17
2016-07-27T07:23:59.448Z,1014.17
2016-07-27T07:24:59.459Z,1014.16
2016-07-27T07:25:59.482Z,1014.19
2016-07-27T07:26:59.479Z,1014.09
2016-07-27T07:27:59.487Z,1014.13
2016-07-27T07:28:59.498Z,1014.1
2016-07-27T07:29:59.515Z,1014.18
2016-07-27T07:30:59.522Z,1014.26
2016-07-27T07:31:59.530Z,1014.21
2016-07-27T07:32:59.538Z,1014.26
2016-07-27T07:33:59.548Z,1014.23
2016-07-27T07:34:59.558Z,1014.22
2016-07-27T07:35:59.569Z,1014.24
2016-07-27T07:36:59.578Z,1014.28
2016-07-27T07:37:59.588Z,1014.3
2016-07-27T07:38:59.595Z,1014.23
2016-07-27T07:39:59.605Z,1014.3
2016-07-27T07:40:59.616Z,1014.28
2016-07-27T07:41:59.625Z,1014.28
2016-07-27T07:42:59.635Z,1014.31
2016-07-27T07:43:59.643Z,1014.32
2016-07-27T07:44:59.653Z,1014.28
2016-07-27T07:45:59.660Z,1014.24
2016-07-27T07:46:59.668Z,1014.18
2016-07-27T07:47:59.680Z,1014.14
2016-07-27T07:48:59.687Z,1014.13
2016-07-27T07:49:59.694Z,1014.09
2016-07-27T07:50:59.706Z,1014.07
2016-07-27T07:51:59.713Z,1014.12
2016-07-27T07:52:59.720Z,1014.07
2016-07-27T07:53:59.730Z,1013.98
2016-07-27T07:54:59.740Z,1013.97
2016-07-27T07:55:59.747Z,1013.97
2016-07-27T07:56:59.755Z,1013.97
2016-07-27T07:57:59.762Z,1013.99
2016-07-27T07:58:59.772Z,1013.97
2016-07-27T07:59:59.778Z,1014
2016-07-27T08:00:59.786Z,1014.07
2016-07-27T08:01:59.792Z,1014.09
2016-07-27T08:02:59.801Z,1014.05
2016-07-27T08:03:59.809Z,1014.03
2016-07-27T08:04:59.815Z,1013.98
2016-07-27T08:05:59.825Z,1013.93
2016-07-27T08:06:59.830Z,1013.89
2016-07-27T08:07:59.837Z,1013.86
2016-07-27T08:08:59.846Z,1013.87
2016-07-27T08:09:59.852Z,1013.81
2016-07-27T08:11:00.559Z,1013.78
2016-07-27T08:11:59.867Z,1013.75
2016-07-27T08:12:59.872Z,1013.67
2016-07-27T08:13:59.879Z,1013.67
2016-07-27T08:14:59.885Z,1013.63
2016-07-27T08:15:59.900Z,1013.59
2016-07-27T08:16:59.899Z,1013.66
2016-07-27T08:17:59.905Z,1013.65
2016-07-27T08:18:59.911Z,1013.6
2016-07-27T08:19:59.920Z,1013.55
2016-07-27T08:20:59.925Z,1013.53
2016-07-27T08:21:59.931Z,1013.54
2016-07-27T08:22:59.937Z,1013.5
2016-07-27T08:23:59.944Z,1013.46
2016-07-27T08:24:59.950Z,1013.45
2016-07-27T08:26:00.006Z,1013.44
2016-07-27T08:26:59.960Z,1013.42
2016-07-27T08:27:59.965Z,1013.43
2016-07-27T08:29:01.549Z,1013.44
2016-07-27T08:30:01.292Z,1013.45
2016-07-27T08:30:59.982Z,1013.44
2016-07-27T08:32:00.892Z,1013.48
2016-07-27T08:33:00.816Z,1013.46
2016-07-27T08:33:59.999Z,1013.47
2016-07-27T08:35:00.002Z,1013.46
2016-07-27T08:36:00.007Z,1013.45
2016-07-27T08:37:00.023Z,1013.45
2016-07-27T08:38:00.016Z,1013.47
2016-07-27T08:39:00.353Z,1013.4
2016-07-27T08:40:00.024Z,1013.41
2016-07-27T08:41:00.918Z,1013.35
2016-07-27T08:42:00.035Z,1013.35
2016-07-27T08:43:00.037Z,1013.32
2016-07-27T08:44:00.041Z,1013.4
2016-07-27T08:45:00.043Z,1013.49
2016-07-27T08:46:00.047Z,1013.57
2016-07-27T08:47:00.050Z,1013.59
2016-07-27T08:49:00.058Z,1013.71
2016-07-27T08:50:00.161Z,1013.66
2016-07-27T08:51:00.063Z,1013.62
2016-07-27T08:52:00.064Z,1013.64
2016-07-27T08:53:00.067Z,1013.7
2016-07-27T08:54:00.072Z,1013.7
2016-07-27T08:55:00.075Z,1013.63
2016-07-27T08:56:00.075Z,1013.6
2016-07-27T08:58:00.084Z,1013.63
2016-07-27T08:59:00.084Z,1013.68
2016-07-27T09:00:00.090Z,1013.71
2016-07-27T09:01:00.094Z,1013.77
2016-07-27T09:02:00.096Z,1013.83
2016-07-27T09:03:00.099Z,1013.81
2016-07-27T09:04:00.103Z,1013.79
2016-07-27T09:05:00.107Z,1013.72
2016-07-27T09:06:00.111Z,1013.74
2016-07-27T09:07:00.116Z,1013.7
2016-07-27T09:08:00.119Z,1013.59
2016-07-27T09:09:00.124Z,1013.62
2016-07-27T09:10:00.130Z,1013.6
2016-07-27T09:11:00.135Z,1013.53
2016-07-27T09:12:00.140Z,1013.48
2016-07-27T09:13:00.150Z,1013.47
2016-07-27T09:14:00.149Z,1013.48
2016-07-27T09:15:00.155Z,1013.41
2016-07-27T09:16:00.162Z,1013.41
2016-07-27T09:17:00.166Z,1013.38
2016-07-27T09:18:00.172Z,1013.42
2016-07-27T09:19:00.179Z,1013.45
2016-07-27T09:20:00.183Z,1013.47
2016-07-27T09:21:00.191Z,1013.47
2016-07-27T09:22:00.196Z,1013.5
2016-07-27T09:23:00.202Z,1013.42
2016-07-27T09:24:00.208Z,1013.41
2016-07-27T09:25:00.214Z,1013.33
2016-07-27T09:26:00.223Z,1013.24
2016-07-27T09:27:00.230Z,1013.26
2016-07-27T09:28:00.234Z,1013.2
2016-07-27T09:29:00.243Z,1013.22
2016-07-27T09:30:00.251Z,1013.19
2016-07-27T09:31:00.255Z,1013.19
2016-07-27T09:32:00.264Z,1013.22
2016-07-27T09:33:00.273Z,1013.25
2016-07-27T09:34:00.280Z,1013.29
2016-07-27T09:35:00.286Z,1013.28
2016-07-27T09:36:00.294Z,1013.29
2016-07-27T09:37:00.302Z,1013.19
2016-07-27T09:38:00.310Z,1013.18
2016-07-27T09:39:00.317Z,1013.15
2016-07-27T09:40:00.324Z,1013.19
2016-07-27T09:41:00.330Z,1013.24
2016-07-27T09:42:00.340Z,1013.21
2016-07-27T09:43:00.345Z,1013.22
2016-07-27T09:44:00.354Z,1013.19
2016-07-27T09:45:00.364Z,1013.21
2016-07-27T09:46:00.370Z,1013.17
2016-07-27T09:47:00.404Z,1013.22
2016-07-27T09:48:01.348Z,1013.28
2016-07-27T09:49:00.396Z,1013.34
2016-07-27T09:50:00.403Z,1013.41
2016-07-27T09:51:00.412Z,1013.53
2016-07-27T09:52:00.422Z,1013.61
2016-07-27T09:53:00.591Z,1013.53
2016-07-27T09:54:00.436Z,1013.39
2016-07-27T09:55:00.448Z,1013.32
2016-07-27T09:56:00.455Z,1013.34
2016-07-27T09:57:00.462Z,1013.33
2016-07-27T09:58:00.475Z,1013.4
2016-07-27T09:59:00.485Z,1013.42
2016-07-27T10:00:00.494Z,1013.46
2016-07-27T10:01:00.501Z,1013.46
2016-07-27T10:02:00.512Z,1013.38
2016-07-27T10:03:00.522Z,1013.29
2016-07-27T10:04:00.530Z,1013.27
2016-07-27T10:05:00.538Z,1013.23
2016-07-27T10:06:00.547Z,1013.18
2016-07-27T10:07:00.560Z,1013.2
2016-07-27T10:09:00.577Z,1013.2
2016-07-27T10:10:00.588Z,1013.22
2016-07-27T10:11:00.599Z,1013.31
2016-07-27T10:12:00.607Z,1013.33
2016-07-27T10:13:00.614Z,1013.36
2016-07-27T10:14:00.625Z,1013.34
2016-07-27T10:15:00.634Z,1013.28
2016-07-27T10:16:00.643Z,1013.31
2016-07-27T10:17:00.655Z,1013.25
2016-07-27T10:18:00.664Z,1013.18
2016-07-27T10:19:00.675Z,1013.02
2016-07-27T10:20:00.685Z,1012.95
2016-07-27T10:21:00.696Z,1012.91
2016-07-27T10:22:00.703Z,1012.97
2016-07-27T10:24:00.724Z,1013
2016-07-27T10:25:00.735Z,1012.83
2016-07-27T10:26:00.747Z,1012.83
2016-07-27T10:27:00.754Z,1012.8
2016-07-27T10:28:01.715Z,1012.85
2016-07-27T10:29:00.774Z,1012.82
2016-07-27T10:30:00.783Z,1012.88
2016-07-27T10:31:00.791Z,1012.86
2016-07-27T10:32:00.803Z,1012.71
2016-07-27T10:33:00.813Z,1012.82
2016-07-27T10:34:00.820Z,1012.85
2016-07-27T10:35:00.830Z,1012.84
2016-07-27T10:36:00.842Z,1012.75
2016-07-27T10:37:00.851Z,1012.66
2016-07-27T10:38:00.859Z,1012.78
2016-07-27T10:39:00.870Z,1012.83
2016-07-27T10:40:00.880Z,1012.77
2016-07-27T10:41:00.888Z,1012.68
2016-07-27T10:42:00.896Z,1012.54
2016-07-27T10:43:00.906Z,1012.54
2016-07-27T10:44:00.918Z,1012.48
2016-07-27T10:45:00.926Z,1012.41
2016-07-27T10:46:00.935Z,1012.37
2016-07-27T10:47:00.944Z,1012.32
2016-07-27T10:48:00.953Z,1012.39
2016-07-27T10:49:00.963Z,1012.42
2016-07-27T10:50:01.322Z,1012.41
2016-07-27T10:51:00.985Z,1012.38
2016-07-27T10:52:00.993Z,1012.44
2016-07-27T10:53:01.001Z,1012.43
2016-07-27T10:54:01.012Z,1012.4
2016-07-27T10:55:01.022Z,1012.36
2016-07-27T10:56:01.031Z,1012.4
2016-07-27T10:57:01.040Z,1012.26
2016-07-27T10:58:01.049Z,1012.25
2016-07-27T10:59:01.059Z,1012.17
2016-07-27T11:00:01.069Z,1012.14
2016-07-27T11:01:01.086Z,1012.14
2016-07-27T11:02:01.087Z,1012.08
2016-07-27T11:03:01.097Z,1011.95
2016-07-27T11:04:01.105Z,1011.98
2016-07-27T11:06:01.123Z,1011.95
2016-07-27T11:07:01.136Z,1011.89
2016-07-27T11:08:01.145Z,1011.92
2016-07-27T11:09:01.154Z,1011.86
2016-07-27T11:10:01.161Z,1011.8
2016-07-27T11:11:01.173Z,1011.83
2016-07-27T11:12:01.179Z,1011.78
2016-07-27T11:13:01.191Z,1011.81
2016-07-27T11:14:01.196Z,1011.81
2016-07-27T11:15:01.209Z,1011.74
2016-07-27T11:16:02.794Z,1011.68
2016-07-27T11:17:01.227Z,1011.66
2016-07-27T11:18:01.234Z,1011.65
2016-07-27T11:19:01.242Z,1011.59
2016-07-27T11:20:01.254Z,1011.6
2016-07-27T11:21:01.260Z,1011.6
2016-07-27T11:22:01.268Z,1011.67
2016-07-27T11:23:01.279Z,1011.7
2016-07-27T11:24:01.286Z,1011.71
2016-07-27T11:25:01.296Z,1011.7
2016-07-27T11:26:01.303Z,1011.57
2016-07-27T11:27:01.313Z,1011.46
2016-07-27T11:28:01.319Z,1011.44
2016-07-27T11:29:01.329Z,1011.4
2016-07-27T11:30:01.338Z,1011.45
2016-07-27T11:31:01.345Z,1011.39
2016-07-27T11:32:01.352Z,1011.3
2016-07-27T11:33:01.363Z,1011.3
2016-07-27T11:35:01.381Z,1011.17
2016-07-27T11:36:01.387Z,1011.07
2016-07-27T11:37:01.397Z,1011.08
2016-07-27T11:38:01.404Z,1011.05
2016-07-27T11:39:01.412Z,1010.95
2016-07-27T11:40:01.421Z,1010.96
2016-07-27T11:41:01.428Z,1010.98
2016-07-27T11:42:01.435Z,1010.97
2016-07-27T11:43:01.443Z,1010.98
2016-07-27T11:44:01.452Z,1010.97
2016-07-27T11:45:01.459Z,1010.94
2016-07-27T11:46:01.479Z,1010.94
2016-07-27T11:47:01.477Z,1010.9
2016-07-27T11:48:01.485Z,1010.88
2016-07-27T11:49:01.491Z,1010.85
2016-07-27T11:50:01.500Z,1010.81
2016-07-27T11:51:01.509Z,1010.85
2016-07-27T11:52:01.516Z,1010.85
2016-07-27T11:53:01.526Z,1010.81
2016-07-27T11:54:01.531Z,1010.82
2016-07-27T11:55:01.539Z,1010.83
2016-07-27T11:56:01.548Z,1010.83
2016-07-27T11:57:01.556Z,1010.8
2016-07-27T11:58:01.565Z,1010.76
2016-07-27T11:59:01.570Z,1010.81
2016-07-27T12:00:01.578Z,1010.84
2016-07-27T12:01:01.586Z,1010.81
2016-07-27T12:02:01.596Z,1010.87
2016-07-27T12:03:01.604Z,1010.93
2016-07-27T12:04:01.612Z,1010.83
2016-07-27T12:05:01.618Z,1010.83
2016-07-27T12:06:01.627Z,1010.91
2016-07-27T12:07:01.635Z,1010.81
2016-07-27T12:08:01.643Z,1010.82
2016-07-27T12:09:01.650Z,1010.85
2016-07-27T12:10:01.656Z,1010.87
2016-07-27T12:11:01.666Z,1010.88
2016-07-27T12:12:01.673Z,1010.95
2016-07-27T12:13:01.683Z,1011.08
2016-07-27T12:14:01.690Z,1011.1
2016-07-27T12:15:01.698Z,1011.12
2016-07-27T12:16:01.708Z,1011.18
2016-07-27T12:17:01.714Z,1011.22
2016-07-27T12:18:01.724Z,1011.21
2016-07-27T12:19:01.733Z,1011.33
2016-07-27T12:20:01.739Z,1011.3
2016-07-27T12:21:01.749Z,1011.26
2016-07-27T12:22:01.756Z,1011.23
2016-07-27T12:23:01.764Z,1011.15
2016-07-27T12:24:01.772Z,1011.13